createdAt,value
2023-10-31T00:00:29.566Z,15.10
2023-10-31T00:03:04.434Z,15.10
2023-10-31T00:05:32.464Z,15.10
2023-10-31T00:08:00.830Z,15.10
2023-10-31T00:10:28.906Z,15.00
2023-10-31T00:13:04.532Z,15.10
2023-10-31T00:15:34.152Z,15.00
2023-10-31T00:18:02.092Z,15.00
2023-10-31T00:20:33.018Z,15.00
2023-10-31T00:23:01.132Z,14.90
2023-10-31T00:25:29.700Z,15.00
2023-10-31T00:27:58.777Z,14.90
2023-10-31T00:30:26.716Z,14.90
2023-10-31T00:32:56.736Z,14.90
2023-10-31T00:35:25.086Z,14.80
2023-10-31T00:37:53.152Z,14.80
2023-10-31T00:40:21.432Z,14.80
2023-10-31T00:42:49.402Z,14.70
2023-10-31T00:45:17.498Z,14.70
2023-10-31T00:47:45.530Z,14.80
2023-10-31T00:50:15.363Z,14.70
2023-10-31T00:52:44.375Z,14.70
2023-10-31T00:55:12.361Z,14.70
2023-10-31T00:57:40.523Z,14.70
2023-10-31T01:00:10.671Z,14.70
2023-10-31T01:02:38.682Z,14.70
2023-10-31T01:05:07.303Z,14.60
2023-10-31T01:07:36.654Z,14.70
2023-10-31T01:10:05.238Z,14.70
2023-10-31T01:12:33.857Z,14.70
2023-10-31T01:15:03.270Z,14.70
2023-10-31T01:17:31.854Z,14.60
2023-10-31T01:20:02.028Z,14.60
2023-10-31T01:22:30.230Z,14.60
2023-10-31T01:24:59.717Z,14.60
2023-10-31T01:27:29.798Z,14.50
2023-10-31T01:29:57.869Z,14.50
2023-10-31T01:32:31.856Z,14.50
2023-10-31T01:34:59.867Z,14.40
2023-10-31T01:37:27.831Z,14.30
2023-10-31T01:39:59.758Z,14.30
2023-10-31T01:42:27.736Z,14.30
2023-10-31T01:44:55.690Z,14.20
2023-10-31T01:47:24.900Z,14.20
2023-10-31T01:49:54.728Z,14.20
2023-10-31T01:52:22.909Z,14.20
2023-10-31T01:54:51.650Z,14.20
2023-10-31T01:57:21.864Z,14.10
2023-10-31T01:59:52.115Z,14.10
2023-10-31T02:02:22.134Z,14.00
2023-10-31T02:04:50.238Z,14.00
2023-10-31T02:07:19.391Z,13.90
2023-10-31T02:09:47.540Z,13.90
2023-10-31T02:12:35.586Z,13.90
2023-10-31T02:15:04.117Z,13.90
2023-10-31T02:17:32.406Z,13.90
2023-10-31T02:20:03.964Z,13.90
2023-10-31T02:22:33.833Z,13.80
2023-10-31T02:25:01.836Z,13.80
2023-10-31T02:27:29.824Z,13.80
2023-10-31T02:29:58.127Z,13.80
2023-10-31T02:32:26.372Z,13.70
2023-10-31T02:34:54.532Z,13.70
2023-10-31T02:37:22.575Z,13.70
2023-10-31T02:39:51.911Z,13.60
2023-10-31T02:42:19.978Z,13.60
2023-10-31T02:44:48.845Z,13.60
2023-10-31T02:47:17.312Z,13.50
2023-10-31T02:49:45.282Z,13.40
2023-10-31T02:52:19.271Z,13.40
2023-10-31T02:54:47.570Z,13.30
2023-10-31T02:57:17.812Z,13.30
2023-10-31T02:59:47.469Z,13.30
2023-10-31T03:02:15.727Z,13.30
2023-10-31T03:04:43.757Z,13.30
2023-10-31T03:07:11.782Z,13.30
2023-10-31T03:09:39.821Z,13.40
2023-10-31T03:12:08.585Z,13.30
2023-10-31T03:14:38.115Z,13.40
2023-10-31T03:17:13.551Z,13.40
2023-10-31T03:19:41.609Z,13.40
2023-10-31T03:22:09.648Z,13.40
2023-10-31T03:24:37.765Z,13.40
2023-10-31T03:27:05.724Z,13.50
2023-10-31T03:29:33.629Z,13.50
2023-10-31T03:32:03.559Z,13.50
2023-10-31T03:34:31.535Z,13.60
2023-10-31T03:36:59.486Z,13.50
2023-10-31T03:39:27.753Z,13.50
2023-10-31T03:41:55.982Z,13.50
2023-10-31T03:44:26.411Z,13.50
2023-10-31T03:46:54.408Z,13.50
2023-10-31T03:49:24.845Z,13.50
2023-10-31T03:51:52.979Z,13.40
2023-10-31T03:54:20.921Z,13.40
2023-10-31T03:56:49.924Z,13.40
2023-10-31T03:59:25.236Z,13.40
2023-10-31T04:01:54.943Z,13.40
2023-10-31T04:04:24.282Z,13.40
2023-10-31T04:06:52.259Z,13.50
2023-10-31T04:09:26.445Z,13.50
2023-10-31T04:11:54.477Z,13.50
2023-10-31T04:14:22.594Z,13.50
2023-10-31T04:16:50.672Z,13.50
2023-10-31T04:19:19.592Z,13.50
2023-10-31T04:21:48.955Z,13.50
2023-10-31T04:24:16.934Z,13.50
2023-10-31T04:26:44.868Z,13.50
2023-10-31T04:29:19.430Z,13.50
2023-10-31T04:31:47.978Z,13.50
2023-10-31T04:34:16.077Z,13.50
2023-10-31T04:36:44.916Z,13.40
2023-10-31T04:39:21.731Z,13.40
2023-10-31T04:41:49.975Z,13.40
2023-10-31T04:44:18.603Z,13.50
2023-10-31T04:46:51.896Z,13.40
2023-10-31T04:49:20.037Z,13.50
2023-10-31T04:51:47.981Z,13.50
2023-10-31T04:54:17.294Z,13.50
2023-10-31T04:56:45.314Z,13.50
2023-10-31T04:59:13.309Z,13.30
2023-10-31T05:01:41.881Z,13.40
2023-10-31T05:04:13.237Z,13.40
2023-10-31T05:06:42.068Z,13.40
2023-10-31T05:09:11.533Z,13.40
2023-10-31T05:11:41.638Z,13.40
2023-10-31T05:14:11.509Z,13.40
2023-10-31T05:16:43.860Z,13.40
2023-10-31T05:19:12.511Z,13.40
2023-10-31T05:21:46.317Z,13.40
2023-10-31T05:24:20.027Z,13.40
2023-10-31T05:26:49.584Z,13.40
2023-10-31T05:29:17.561Z,13.40
2023-10-31T05:31:45.617Z,13.40
2023-10-31T05:34:14.125Z,13.40
2023-10-31T05:36:43.259Z,13.40
2023-10-31T05:39:11.427Z,13.40
2023-10-31T05:41:39.686Z,13.40
2023-10-31T05:44:09.082Z,13.50
2023-10-31T05:46:40.919Z,13.50
2023-10-31T05:49:09.328Z,13.50
2023-10-31T05:51:37.388Z,13.50
2023-10-31T05:54:06.330Z,13.50
2023-10-31T05:56:40.223Z,13.50
2023-10-31T05:59:09.911Z,13.50
2023-10-31T06:01:37.854Z,13.50
2023-10-31T06:04:06.133Z,13.40
2023-10-31T06:06:34.954Z,13.50
2023-10-31T06:09:02.871Z,13.50
2023-10-31T06:11:30.802Z,13.40
2023-10-31T06:13:58.904Z,13.40
2023-10-31T06:16:28.883Z,13.40
2023-10-31T06:18:56.858Z,13.30
2023-10-31T06:21:25.333Z,13.40
2023-10-31T06:23:53.495Z,13.40
2023-10-31T06:26:21.532Z,13.40
2023-10-31T06:28:58.021Z,13.40
2023-10-31T06:31:39.097Z,13.40
2023-10-31T06:34:07.147Z,13.40
2023-10-31T06:36:35.123Z,13.30
2023-10-31T06:39:03.372Z,13.30
2023-10-31T06:41:32.365Z,13.30
2023-10-31T06:44:00.308Z,13.20
2023-10-31T06:46:28.254Z,13.20
2023-10-31T06:48:57.520Z,13.20
2023-10-31T06:51:25.937Z,13.10
2023-10-31T06:53:53.914Z,13.10
2023-10-31T06:56:22.037Z,13.10
2023-10-31T06:58:50.014Z,13.10
2023-10-31T07:01:20.497Z,13.10
2023-10-31T07:03:50.255Z,13.10
2023-10-31T07:06:19.622Z,13.10
2023-10-31T07:08:47.632Z,13.00
2023-10-31T07:11:19.060Z,13.00
2023-10-31T07:13:47.180Z,13.00
2023-10-31T07:16:15.144Z,13.00
2023-10-31T07:18:43.150Z,13.00
2023-10-31T07:21:11.178Z,13.00
2023-10-31T07:23:40.452Z,13.00
2023-10-31T07:26:08.434Z,13.00
2023-10-31T07:28:36.640Z,13.00
2023-10-31T07:31:05.801Z,13.10
2023-10-31T07:33:33.855Z,13.10
2023-10-31T07:36:01.869Z,13.10
2023-10-31T07:38:36.657Z,13.10
2023-10-31T07:41:06.294Z,13.10
2023-10-31T07:43:37.555Z,13.10
2023-10-31T07:46:12.989Z,13.10
2023-10-31T07:48:41.008Z,13.10
2023-10-31T07:51:08.924Z,13.10
2023-10-31T07:53:36.874Z,13.10
2023-10-31T07:56:07.129Z,13.10
2023-10-31T07:58:35.201Z,13.10
2023-10-31T08:01:03.277Z,13.10
2023-10-31T08:03:31.332Z,13.10
2023-10-31T08:06:01.336Z,13.10
2023-10-31T08:08:29.458Z,13.10
2023-10-31T08:10:58.363Z,13.20
2023-10-31T08:13:27.740Z,13.20
2023-10-31T08:15:55.735Z,13.30
2023-10-31T08:18:25.319Z,13.30
2023-10-31T08:20:53.273Z,13.30
2023-10-31T08:23:21.362Z,13.30
2023-10-31T08:25:49.917Z,13.40
2023-10-31T08:28:17.925Z,13.40
2023-10-31T08:30:47.912Z,13.40
2023-10-31T08:33:16.290Z,13.40
2023-10-31T08:35:45.249Z,13.40
2023-10-31T08:38:21.638Z,13.40
2023-10-31T08:40:55.467Z,13.40
2023-10-31T08:43:23.523Z,13.50
2023-10-31T08:45:53.462Z,13.50
2023-10-31T08:48:21.572Z,13.50
2023-10-31T08:50:52.371Z,13.50
2023-10-31T08:53:21.071Z,13.50
2023-10-31T08:55:49.423Z,13.50
2023-10-31T08:58:19.257Z,13.60
2023-10-31T09:00:47.303Z,13.60
2023-10-31T09:03:16.808Z,13.60
2023-10-31T09:05:45.226Z,13.60
2023-10-31T09:08:13.305Z,13.60
2023-10-31T09:10:43.650Z,13.60
2023-10-31T09:13:12.009Z,13.60
2023-10-31T09:15:40.229Z,13.60
2023-10-31T09:18:08.994Z,13.60
2023-10-31T09:20:38.325Z,13.60
2023-10-31T09:23:06.723Z,13.70
2023-10-31T09:25:34.738Z,13.70
2023-10-31T09:28:08.966Z,13.70
2023-10-31T09:30:37.067Z,13.60
2023-10-31T09:33:05.127Z,13.60
2023-10-31T09:35:33.256Z,13.60
2023-10-31T09:38:02.846Z,13.60
2023-10-31T09:40:30.825Z,13.70
2023-10-31T09:42:58.843Z,13.70
2023-10-31T09:45:33.268Z,13.70
2023-10-31T09:48:03.452Z,13.70
2023-10-31T09:50:32.414Z,13.80
2023-10-31T09:53:03.605Z,13.80
2023-10-31T09:55:31.766Z,13.80
2023-10-31T09:57:59.827Z,13.80
2023-10-31T10:00:27.821Z,13.80
2023-10-31T10:02:57.210Z,13.80
2023-10-31T10:05:27.174Z,13.80
2023-10-31T10:07:58.159Z,13.80
2023-10-31T10:10:27.488Z,13.80
2023-10-31T10:12:55.563Z,13.80
2023-10-31T10:15:29.871Z,13.80
2023-10-31T10:17:58.023Z,13.80
2023-10-31T10:20:26.340Z,13.80
2023-10-31T10:22:59.592Z,13.80
2023-10-31T10:25:39.457Z,13.80
2023-10-31T10:28:14.413Z,13.80
2023-10-31T10:30:42.419Z,13.80
2023-10-31T10:33:10.436Z,13.80
2023-10-31T10:35:38.424Z,13.90
2023-10-31T10:38:11.947Z,13.90
2023-10-31T10:40:43.073Z,13.90
2023-10-31T10:43:15.737Z,14.00
2023-10-31T10:45:45.932Z,14.00
2023-10-31T10:48:18.096Z,13.90
2023-10-31T10:50:56.157Z,13.90
2023-10-31T10:53:27.995Z,14.00
2023-10-31T10:56:04.905Z,13.90
2023-10-31T10:58:39.305Z,13.90
2023-10-31T11:01:09.777Z,14.00
2023-10-31T11:03:38.091Z,14.00
2023-10-31T11:06:07.408Z,14.00
2023-10-31T11:08:36.499Z,14.00
2023-10-31T11:11:07.290Z,14.00
2023-10-31T11:13:35.546Z,14.00
2023-10-31T11:16:11.036Z,14.00
2023-10-31T11:18:39.478Z,14.10
2023-10-31T11:21:07.457Z,14.10
2023-10-31T11:23:35.518Z,14.10
2023-10-31T11:26:04.291Z,14.20
2023-10-31T11:28:34.865Z,14.20
2023-10-31T11:31:04.100Z,14.20
2023-10-31T11:33:32.406Z,14.20
2023-10-31T11:36:03.236Z,14.20
2023-10-31T11:38:34.216Z,14.20
2023-10-31T11:41:10.337Z,14.20
2023-10-31T11:43:55.958Z,14.20
2023-10-31T11:46:26.130Z,14.20
2023-10-31T11:48:56.024Z,14.20
2023-10-31T11:51:24.032Z,14.20
2023-10-31T11:53:52.109Z,14.20
2023-10-31T11:56:23.161Z,14.20
2023-10-31T11:59:03.834Z,14.20
2023-10-31T12:01:32.463Z,14.20
2023-10-31T12:04:01.104Z,14.20
2023-10-31T12:06:30.329Z,14.30
2023-10-31T12:09:02.040Z,14.30
2023-10-31T12:11:30.132Z,14.30
2023-10-31T12:14:06.268Z,14.30
2023-10-31T12:16:35.801Z,14.30
2023-10-31T12:19:05.850Z,14.30
2023-10-31T12:21:42.935Z,14.40
2023-10-31T12:24:12.214Z,14.40
2023-10-31T12:26:40.910Z,14.40
2023-10-31T12:29:14.963Z,14.50
2023-10-31T12:31:46.565Z,14.50
2023-10-31T12:34:15.912Z,14.50
2023-10-31T12:36:45.530Z,14.60
2023-10-31T12:39:14.345Z,14.50
2023-10-31T12:41:43.420Z,14.50
2023-10-31T12:44:14.024Z,14.60
2023-10-31T12:46:43.783Z,14.60
2023-10-31T12:49:18.868Z,14.60
2023-10-31T12:52:00.977Z,14.70
2023-10-31T12:54:33.233Z,14.70
2023-10-31T12:57:02.862Z,14.80
2023-10-31T12:59:32.806Z,14.80
2023-10-31T13:02:01.336Z,14.90
2023-10-31T13:04:30.984Z,14.90
2023-10-31T13:07:08.636Z,14.90
2023-10-31T13:09:41.659Z,15.00
2023-10-31T13:12:12.188Z,15.00
2023-10-31T13:14:41.546Z,15.00
2023-10-31T13:17:09.709Z,14.90
2023-10-31T13:19:37.674Z,14.90
2023-10-31T13:22:05.649Z,14.80
2023-10-31T13:24:33.694Z,14.80
2023-10-31T13:27:04.032Z,14.80
2023-10-31T13:29:32.072Z,14.80
2023-10-31T13:32:01.429Z,14.80
2023-10-31T13:34:32.867Z,14.80
2023-10-31T13:37:03.451Z,14.80
2023-10-31T13:39:39.760Z,14.80
2023-10-31T13:42:08.259Z,14.80
2023-10-31T13:44:36.272Z,14.80
2023-10-31T13:47:06.516Z,14.70
2023-10-31T13:49:35.070Z,14.70
2023-10-31T13:52:04.810Z,14.70
2023-10-31T13:54:32.844Z,14.70
2023-10-31T13:57:01.400Z,14.70
2023-10-31T13:59:32.898Z,14.70
2023-10-31T14:02:01.466Z,14.70
2023-10-31T14:04:31.002Z,14.70
2023-10-31T14:06:59.821Z,14.70
2023-10-31T14:09:27.886Z,14.70
2023-10-31T14:11:56.636Z,14.80
2023-10-31T14:14:24.700Z,14.80
2023-10-31T14:16:52.728Z,14.80
2023-10-31T14:19:20.731Z,14.80
2023-10-31T14:21:50.413Z,14.80
2023-10-31T14:24:18.751Z,14.80
2023-10-31T14:26:46.686Z,14.80
2023-10-31T14:29:14.703Z,14.80
2023-10-31T14:31:43.917Z,14.80
2023-10-31T14:34:12.418Z,14.80
2023-10-31T14:36:40.472Z,14.80
2023-10-31T14:39:10.688Z,14.80
2023-10-31T14:41:38.757Z,14.90
2023-10-31T14:44:07.099Z,14.90
2023-10-31T14:46:35.216Z,14.90
2023-10-31T14:49:03.947Z,15.00
2023-10-31T14:51:32.296Z,15.00
2023-10-31T14:54:00.256Z,15.00
2023-10-31T14:56:30.853Z,15.00
2023-10-31T14:58:59.091Z,15.00
2023-10-31T15:01:27.228Z,15.00
2023-10-31T15:03:55.830Z,15.00
2023-10-31T15:06:24.317Z,15.00
2023-10-31T15:08:52.246Z,15.00
2023-10-31T15:11:20.225Z,14.90
2023-10-31T15:13:49.566Z,14.90
2023-10-31T15:16:18.678Z,14.90
2023-10-31T15:18:46.682Z,14.80
2023-10-31T15:21:14.782Z,14.80
2023-10-31T15:23:42.761Z,14.80
2023-10-31T15:26:14.325Z,14.70
2023-10-31T15:28:44.468Z,14.70
2023-10-31T15:31:14.692Z,14.70
2023-10-31T15:33:44.415Z,14.60
2023-10-31T15:36:13.567Z,14.60
2023-10-31T15:38:42.051Z,14.60
2023-10-31T15:41:17.238Z,14.60
2023-10-31T15:43:46.665Z,14.60
2023-10-31T15:46:23.567Z,14.50
2023-10-31T15:48:51.564Z,14.50
2023-10-31T15:51:19.563Z,14.50
2023-10-31T15:53:47.575Z,14.50
2023-10-31T15:56:15.735Z,14.40
2023-10-31T15:58:43.929Z,14.40
2023-10-31T16:01:11.896Z,14.40
2023-10-31T16:03:41.324Z,14.30
2023-10-31T16:06:09.900Z,14.30
2023-10-31T16:08:41.102Z,14.30
2023-10-31T16:11:09.341Z,14.30
2023-10-31T16:13:38.315Z,14.30
2023-10-31T16:16:07.466Z,14.40
2023-10-31T16:18:35.464Z,14.40
2023-10-31T16:21:19.238Z,14.60
2023-10-31T16:23:49.618Z,14.60
2023-10-31T16:26:18.740Z,14.70
2023-10-31T16:28:47.416Z,14.70
2023-10-31T16:31:16.123Z,14.80
2023-10-31T16:33:44.283Z,14.80
2023-10-31T16:36:12.709Z,14.90
2023-10-31T16:38:43.070Z,14.90
2023-10-31T16:41:11.312Z,15.00
2023-10-31T16:43:40.265Z,15.00
2023-10-31T16:46:08.788Z,15.00
2023-10-31T16:48:36.826Z,15.00
2023-10-31T16:51:05.165Z,15.00
2023-10-31T16:53:33.208Z,15.00
2023-10-31T16:56:02.611Z,15.10
2023-10-31T16:58:31.698Z,15.10
2023-10-31T17:00:59.667Z,15.10
2023-10-31T17:03:28.658Z,15.00
2023-10-31T17:05:56.704Z,15.10
2023-10-31T17:08:24.699Z,15.10
2023-10-31T17:10:53.126Z,15.00
2023-10-31T17:13:22.472Z,15.00
2023-10-31T17:15:51.640Z,15.00
2023-10-31T17:18:19.687Z,14.90
2023-10-31T17:20:49.762Z,14.90
2023-10-31T17:23:18.967Z,14.80
2023-10-31T17:25:49.033Z,14.80
2023-10-31T17:28:17.399Z,14.80
2023-10-31T17:30:49.666Z,14.80
2023-10-31T17:33:17.947Z,14.80
2023-10-31T17:35:46.081Z,14.80
2023-10-31T17:38:16.000Z,14.80
2023-10-31T17:40:44.356Z,14.80
2023-10-31T17:43:12.313Z,14.70
2023-10-31T17:45:43.398Z,14.70
2023-10-31T17:48:12.955Z,14.70
2023-10-31T17:50:46.581Z,14.80
2023-10-31T17:53:17.138Z,14.80
2023-10-31T17:55:47.030Z,14.80
2023-10-31T17:58:17.507Z,14.80
2023-10-31T18:00:45.564Z,14.70
2023-10-31T18:03:15.580Z,14.70
2023-10-31T18:05:43.936Z,14.70
2023-10-31T18:12:00.895Z,14.80
2023-10-31T18:17:38.052Z,14.80
2023-10-31T18:20:26.150Z,14.70
2023-10-31T18:22:55.507Z,14.70
2023-10-31T18:25:23.691Z,14.60
2023-10-31T18:27:51.688Z,14.70
2023-10-31T18:30:20.776Z,14.70
2023-10-31T18:32:49.030Z,14.60
2023-10-31T18:35:19.318Z,14.70
2023-10-31T18:37:47.371Z,14.70
2023-10-31T18:40:16.835Z,14.70
